createdAt,value
2022-12-04T00:01:19.062Z,21.47
2022-12-04T00:03:47.179Z,20.13
2022-12-04T00:06:17.093Z,21.93
2022-12-04T00:08:46.146Z,21.33
2022-12-04T00:11:16.165Z,21.67
2022-12-04T00:13:44.452Z,22.30
2022-12-04T00:16:15.603Z,21.20
2022-12-04T00:18:43.654Z,20.03
2022-12-04T00:21:13.141Z,21.07
2022-12-04T00:23:41.579Z,21.10
2022-12-04T00:26:11.648Z,22.53
2022-12-04T00:28:40.140Z,19.40
2022-12-04T00:31:09.876Z,21.43
2022-12-04T00:33:39.670Z,21.17
2022-12-04T00:36:10.999Z,21.37
2022-12-04T00:38:40.056Z,22.50
2022-12-04T00:41:09.859Z,22.23
2022-12-04T00:43:38.001Z,22.40
2022-12-04T00:46:06.508Z,22.63
2022-12-04T00:48:34.567Z,20.63
2022-12-04T00:51:04.457Z,21.53
2022-12-04T00:53:32.807Z,22.10
2022-12-04T00:56:04.124Z,22.37
2022-12-04T00:58:32.074Z,21.97
2022-12-04T01:01:04.097Z,22.33
2022-12-04T01:03:32.603Z,17.50
2022-12-04T01:06:01.004Z,19.53
2022-12-04T01:08:30.496Z,22.90
2022-12-04T01:10:58.395Z,19.83
2022-12-04T01:13:26.934Z,23.07
2022-12-04T01:15:54.845Z,21.90
2022-12-04T01:18:22.796Z,19.83
2022-12-04T01:20:52.590Z,22.07
2022-12-04T01:23:21.129Z,20.73
2022-12-04T01:25:54.695Z,21.27
2022-12-04T01:28:22.897Z,21.73
2022-12-04T01:31:02.126Z,22.23
2022-12-04T01:33:30.813Z,23.37
2022-12-04T01:35:59.901Z,21.73
2022-12-04T01:38:29.013Z,22.13
2022-12-04T01:40:59.390Z,23.37
2022-12-04T01:43:29.785Z,22.57
2022-12-04T01:45:58.560Z,22.13
2022-12-04T01:48:31.863Z,23.10
2022-12-04T01:51:07.363Z,22.43
2022-12-04T01:53:38.782Z,22.17
2022-12-04T01:56:09.284Z,21.77
2022-12-04T01:58:41.966Z,21.90
2022-12-04T02:01:10.806Z,22.73
2022-12-04T02:03:39.158Z,22.23
2022-12-04T02:06:08.114Z,22.37
2022-12-04T02:08:37.198Z,22.33
2022-12-04T02:11:18.741Z,23.27
2022-12-04T02:13:55.785Z,21.43
2022-12-04T02:16:29.358Z,22.03
2022-12-04T02:19:05.737Z,19.40
2022-12-04T02:21:37.385Z,21.03
2022-12-04T02:24:29.396Z,19.40
2022-12-04T02:27:03.208Z,22.80
2022-12-04T02:29:40.381Z,21.13
2022-12-04T02:32:20.002Z,22.37
2022-12-04T02:34:54.074Z,22.77
2022-12-04T02:37:30.286Z,21.30
2022-12-04T02:40:04.742Z,21.13
2022-12-04T02:42:44.375Z,22.73
2022-12-04T02:45:17.149Z,22.67
2022-12-04T02:47:47.254Z,22.60
2022-12-04T02:50:18.815Z,21.97
2022-12-04T02:52:51.278Z,21.63
2022-12-04T02:55:24.188Z,21.40
2022-12-04T02:57:57.010Z,23.53
2022-12-04T03:00:26.600Z,22.20
2022-12-04T03:03:00.364Z,21.63
2022-12-04T03:05:38.730Z,21.47
2022-12-04T03:08:11.393Z,20.60
2022-12-04T03:10:45.167Z,19.60
2022-12-04T03:13:16.740Z,19.80
2022-12-04T03:15:50.180Z,23.90
2022-12-04T03:18:21.422Z,19.50
2022-12-04T03:20:55.103Z,23.37
2022-12-04T03:23:30.917Z,20.70
2022-12-04T03:26:03.749Z,21.17
2022-12-04T03:28:40.204Z,20.27
2022-12-04T03:31:11.950Z,21.30
2022-12-04T03:33:43.058Z,23.03
2022-12-04T03:36:17.474Z,21.17
2022-12-04T03:38:52.479Z,22.07
2022-12-04T03:41:27.365Z,22.57
2022-12-04T03:44:04.505Z,21.90
2022-12-04T03:46:39.510Z,22.87
2022-12-04T03:49:13.756Z,22.07
2022-12-04T03:51:45.868Z,22.27
2022-12-04T03:54:17.207Z,20.27
2022-12-04T03:56:49.698Z,21.97
2022-12-04T03:59:23.354Z,20.53
2022-12-04T04:01:55.229Z,20.27
2022-12-04T04:04:31.308Z,21.57
2022-12-04T04:07:05.929Z,18.53
2022-12-04T04:09:40.199Z,19.60
2022-12-04T04:12:12.752Z,20.80
2022-12-04T04:15:03.458Z,21.23
2022-12-04T04:17:56.666Z,20.87
2022-12-04T04:20:48.682Z,22.67
2022-12-04T04:23:36.292Z,24.70
2022-12-04T04:26:04.948Z,20.87
2022-12-04T04:28:34.515Z,24.10
2022-12-04T04:31:17.358Z,21.50
2022-12-04T04:33:54.214Z,22.77
2022-12-04T04:36:28.564Z,22.07
2022-12-04T04:39:02.756Z,24.80
2022-12-04T04:41:37.762Z,22.90
2022-12-04T04:44:13.106Z,19.70
2022-12-04T04:46:45.377Z,20.87
2022-12-04T04:49:16.822Z,23.50
2022-12-04T04:51:45.836Z,23.10
2022-12-04T04:54:15.617Z,23.57
2022-12-04T04:56:45.292Z,22.93
2022-12-04T04:59:13.401Z,24.87
2022-12-04T05:01:44.204Z,23.50
2022-12-04T05:04:12.100Z,24.63
2022-12-04T05:06:41.255Z,23.20
2022-12-04T05:09:09.335Z,22.37
2022-12-04T05:11:37.253Z,23.67
2022-12-04T05:14:05.906Z,24.10
2022-12-04T05:16:34.226Z,23.63
2022-12-04T05:19:19.815Z,24.47
2022-12-04T05:21:49.012Z,22.57
2022-12-04T05:24:16.798Z,24.73
2022-12-04T05:26:44.666Z,24.87
2022-12-04T05:29:12.472Z,24.50
2022-12-04T05:31:40.522Z,25.10
2022-12-04T05:34:08.385Z,22.50
2022-12-04T05:36:36.251Z,24.17
2022-12-04T05:39:05.448Z,25.40
2022-12-04T05:41:33.323Z,23.33
2022-12-04T05:44:01.106Z,24.13
2022-12-04T05:46:29.130Z,24.30
2022-12-04T05:48:58.464Z,25.17
2022-12-04T05:51:26.284Z,25.27
2022-12-04T05:53:54.065Z,24.80
2022-12-04T05:56:23.561Z,25.63
2022-12-04T05:58:51.373Z,24.17
2022-12-04T06:01:21.508Z,21.90
2022-12-04T06:03:49.730Z,24.63
2022-12-04T06:06:22.262Z,18.13
2022-12-04T06:08:51.301Z,25.90
2022-12-04T06:11:20.640Z,25.37
2022-12-04T06:13:49.918Z,25.33
2022-12-04T06:16:19.996Z,25.87
2022-12-04T06:18:50.593Z,24.20
2022-12-04T06:21:19.334Z,22.83
2022-12-04T06:23:47.461Z,24.93
2022-12-04T06:26:15.803Z,26.67
2022-12-04T06:28:43.645Z,24.17
2022-12-04T06:31:15.270Z,25.63
2022-12-04T06:33:43.846Z,25.27
2022-12-04T06:36:13.971Z,25.60
2022-12-04T06:38:42.249Z,25.40
2022-12-04T06:41:12.534Z,24.37
2022-12-04T06:43:41.100Z,26.40
2022-12-04T06:46:13.008Z,25.67
2022-12-04T06:48:41.710Z,24.77
2022-12-04T06:51:11.941Z,25.13
2022-12-04T06:53:40.331Z,25.93
2022-12-04T06:56:10.110Z,26.87
2022-12-04T06:58:38.503Z,25.20
2022-12-04T07:01:10.851Z,22.50
2022-12-04T07:03:43.532Z,26.27
2022-12-04T07:06:16.258Z,25.93
2022-12-04T07:08:45.124Z,26.83
2022-12-04T07:11:13.675Z,24.80
2022-12-04T07:13:42.357Z,20.80
2022-12-04T07:16:12.826Z,20.83
2022-12-04T07:18:42.872Z,23.60
2022-12-04T07:21:14.709Z,22.97
2022-12-04T07:23:42.779Z,24.23
2022-12-04T07:26:13.173Z,27.10
2022-12-04T07:28:41.711Z,24.47
2022-12-04T07:31:12.170Z,24.47
2022-12-04T07:33:42.021Z,24.67
2022-12-04T07:36:13.165Z,24.60
2022-12-04T07:38:41.176Z,25.07
2022-12-04T07:41:11.161Z,26.40
2022-12-04T07:43:39.182Z,26.50
2022-12-04T07:46:08.691Z,26.93
2022-12-04T07:48:36.592Z,26.90
2022-12-04T07:51:08.377Z,26.53
2022-12-04T07:53:36.937Z,28.17
2022-12-04T07:56:06.282Z,27.27
2022-12-04T07:58:35.164Z,25.87
2022-12-04T08:01:10.807Z,25.83
2022-12-04T08:03:43.556Z,27.47
2022-12-04T08:06:18.121Z,26.73
2022-12-04T08:08:46.295Z,25.47
2022-12-04T08:11:16.451Z,25.33
2022-12-04T08:13:44.289Z,24.90
2022-12-04T08:16:13.823Z,25.70
2022-12-04T08:18:46.517Z,25.57
2022-12-04T08:21:19.217Z,25.70
2022-12-04T08:23:47.698Z,26.63
2022-12-04T08:26:15.827Z,25.13
2022-12-04T08:28:43.773Z,25.03
2022-12-04T08:31:14.466Z,26.10
2022-12-04T08:33:43.635Z,26.73
2022-12-04T08:36:14.195Z,26.23
2022-12-04T08:38:43.947Z,28.03
2022-12-04T08:41:14.171Z,26.23
2022-12-04T08:43:42.426Z,24.77
2022-12-04T08:46:12.110Z,23.80
2022-12-04T08:48:40.468Z,25.70
2022-12-04T08:51:09.068Z,26.17
2022-12-04T08:53:37.306Z,25.63
2022-12-04T08:56:07.135Z,28.30
2022-12-04T08:58:35.204Z,28.10
2022-12-04T09:01:07.072Z,27.73
2022-12-04T09:03:35.043Z,26.50
2022-12-04T09:06:04.806Z,23.60
2022-12-04T09:08:33.043Z,25.73
2022-12-04T09:11:06.422Z,26.47
2022-12-04T09:13:34.887Z,23.70
2022-12-04T09:16:06.837Z,26.63
2022-12-04T09:18:35.165Z,27.17
2022-12-04T09:21:05.232Z,26.83
2022-12-04T09:23:34.208Z,25.73
2022-12-04T09:26:02.339Z,23.57
2022-12-04T09:28:31.545Z,25.67
2022-12-04T09:31:00.243Z,25.87
2022-12-04T09:33:28.324Z,27.27
2022-12-04T09:35:56.366Z,26.43
2022-12-04T09:38:24.235Z,19.97
2022-12-04T09:41:00.644Z,26.87
2022-12-04T09:43:36.386Z,25.47
2022-12-04T09:46:11.053Z,24.63
2022-12-04T09:48:42.962Z,25.70
2022-12-04T09:51:18.601Z,25.73
2022-12-04T09:53:49.846Z,26.40
2022-12-04T09:56:20.707Z,23.27
2022-12-04T09:58:54.405Z,21.53
2022-12-04T10:01:25.676Z,32.08
2022-12-04T10:03:55.187Z,23.33
2022-12-04T10:06:27.423Z,27.13
2022-12-04T10:09:02.201Z,28.23
2022-12-04T10:11:39.301Z,25.70
2022-12-04T10:14:19.590Z,26.83
2022-12-04T10:17:08.883Z,23.67
2022-12-04T10:19:46.000Z,27.03
2022-12-04T10:22:21.283Z,27.37
2022-12-04T10:24:52.693Z,27.70
2022-12-04T10:27:24.210Z,28.47
2022-12-04T10:29:58.202Z,29.03
2022-12-04T10:32:29.731Z,31.97
2022-12-04T10:35:00.947Z,27.07
2022-12-04T10:37:29.204Z,28.30
2022-12-04T10:40:03.525Z,26.30
2022-12-04T10:42:37.784Z,27.63
2022-12-04T10:45:08.178Z,26.63
2022-12-04T10:47:36.301Z,31.95
2022-12-04T10:50:06.817Z,29.60
2022-12-04T10:52:34.680Z,28.00
2022-12-04T10:55:03.001Z,29.70
2022-12-04T10:57:39.096Z,27.60
2022-12-04T11:00:26.805Z,26.20
2022-12-04T11:02:57.079Z,24.63
2022-12-04T11:05:29.056Z,24.30
2022-12-04T11:07:57.929Z,25.87
2022-12-04T11:10:31.793Z,26.80
2022-12-04T11:13:02.130Z,23.40
2022-12-04T11:15:31.838Z,21.10
2022-12-04T11:18:09.717Z,23.70
2022-12-04T11:20:37.752Z,24.17
2022-12-04T11:23:06.224Z,24.83
2022-12-04T11:25:39.422Z,23.23
2022-12-04T11:28:07.365Z,24.13
2022-12-04T11:30:39.187Z,23.93
2022-12-04T11:33:17.880Z,26.07
2022-12-04T11:35:52.550Z,24.37
2022-12-04T11:38:24.639Z,21.53
2022-12-04T11:40:55.851Z,26.03
2022-12-04T11:43:27.071Z,23.10
2022-12-04T11:45:58.515Z,24.63
2022-12-04T11:48:27.038Z,24.27
2022-12-04T11:51:04.216Z,27.73
2022-12-04T11:53:43.295Z,23.20
2022-12-04T11:56:26.118Z,23.80
2022-12-04T11:59:19.492Z,22.47
2022-12-04T12:01:58.043Z,21.90
2022-12-04T12:04:58.199Z,22.83
2022-12-04T12:07:35.924Z,24.80
2022-12-04T12:10:11.383Z,23.33
2022-12-04T12:12:54.633Z,22.73
2022-12-04T12:15:31.262Z,23.27
2022-12-04T12:18:17.731Z,23.70
2022-12-04T12:20:58.034Z,22.37
2022-12-04T12:23:40.315Z,21.50
2022-12-04T12:26:12.902Z,20.77
2022-12-04T12:29:03.056Z,21.70
2022-12-04T12:31:57.060Z,21.40
2022-12-04T12:34:33.979Z,21.70
2022-12-04T12:37:08.805Z,21.97
2022-12-04T12:39:41.168Z,21.37
2022-12-04T12:42:18.813Z,19.17
2022-12-04T12:44:54.505Z,21.03
2022-12-04T12:47:26.064Z,21.70
2022-12-04T12:50:00.720Z,19.20
2022-12-04T12:52:35.332Z,20.60
2022-12-04T12:55:14.745Z,19.97
2022-12-04T12:57:45.067Z,19.33
2022-12-04T13:00:17.235Z,20.97
2022-12-04T13:02:51.381Z,18.10
2022-12-04T13:05:26.191Z,19.47
2022-12-04T13:08:04.424Z,19.50
2022-12-04T13:10:37.307Z,21.23
2022-12-04T13:13:11.240Z,20.33
2022-12-04T13:15:43.030Z,20.17
2022-12-04T13:18:24.213Z,18.90
2022-12-04T13:20:56.149Z,19.47
2022-12-04T13:23:39.468Z,17.97
2022-12-04T13:26:12.425Z,20.17
2022-12-04T13:28:54.474Z,19.20
2022-12-04T13:31:34.018Z,20.93
2022-12-04T13:34:30.944Z,20.90
2022-12-04T13:37:13.187Z,17.70
2022-12-04T13:40:15.050Z,19.03
2022-12-04T13:42:43.212Z,17.53
2022-12-04T13:45:13.528Z,21.87
2022-12-04T13:47:41.425Z,15.87
2022-12-04T13:50:27.851Z,19.27
2022-12-04T13:52:57.867Z,15.77
2022-12-04T13:55:31.542Z,18.17
2022-12-04T13:58:01.802Z,19.17
2022-12-04T14:00:32.549Z,18.63
2022-12-04T14:03:04.579Z,18.93
2022-12-04T14:05:40.688Z,20.30
2022-12-04T14:08:24.957Z,19.60
2022-12-04T14:11:01.977Z,20.87
2022-12-04T14:13:36.750Z,20.97
2022-12-04T14:16:07.854Z,21.33
2022-12-04T14:18:35.794Z,19.43
2022-12-04T14:21:06.449Z,21.57
2022-12-04T14:23:40.482Z,19.43
2022-12-04T14:26:21.850Z,20.13
2022-12-04T14:28:49.800Z,21.53
2022-12-04T14:31:26.567Z,28.13
2022-12-04T14:33:58.857Z,22.30
2022-12-04T14:36:28.775Z,19.20
2022-12-04T14:39:05.384Z,20.90
2022-12-04T14:41:33.538Z,21.20
2022-12-04T14:44:01.716Z,19.00
2022-12-04T14:46:38.884Z,20.87
2022-12-04T14:49:19.360Z,22.63
2022-12-04T14:51:55.242Z,23.17
2022-12-04T14:54:34.348Z,22.30
2022-12-04T14:57:18.014Z,22.97
2022-12-04T14:59:48.303Z,22.33
2022-12-04T15:02:19.809Z,22.13
2022-12-04T15:04:49.691Z,21.90
2022-12-04T15:07:22.367Z,22.63
2022-12-04T15:10:14.647Z,22.50
2022-12-04T15:12:48.705Z,22.80
2022-12-04T15:15:22.174Z,21.67
2022-12-04T15:18:00.404Z,21.50
2022-12-04T15:20:33.386Z,21.40
2022-12-04T15:23:05.413Z,21.60
2022-12-04T15:25:47.297Z,19.77
2022-12-04T15:28:19.159Z,20.70
2022-12-04T15:30:48.791Z,17.40
2022-12-04T15:33:21.742Z,21.53
2022-12-04T15:35:59.964Z,19.67
2022-12-04T15:38:28.299Z,20.67
2022-12-04T15:40:58.760Z,19.93
2022-12-04T15:43:31.953Z,21.80
2022-12-04T15:46:00.479Z,20.03
2022-12-04T15:48:30.671Z,17.07
2022-12-04T15:51:00.892Z,21.33
2022-12-04T15:53:32.345Z,22.97
2022-12-04T15:56:06.454Z,20.63
2022-12-04T15:58:35.780Z,21.57
2022-12-04T16:01:06.381Z,22.10
2022-12-04T16:03:38.278Z,20.97
2022-12-04T16:06:09.677Z,21.50
2022-12-04T16:08:39.667Z,20.43
2022-12-04T16:11:25.379Z,21.03
2022-12-04T16:14:15.135Z,18.20
2022-12-04T16:16:45.720Z,21.17
2022-12-04T16:19:23.465Z,18.27
2022-12-04T16:21:51.463Z,19.67
2022-12-04T16:24:19.305Z,22.53
2022-12-04T16:26:50.233Z,18.30
2022-12-04T16:29:18.105Z,19.17
2022-12-04T16:31:45.969Z,18.67
2022-12-04T16:34:14.355Z,20.80
2022-12-04T16:36:42.390Z,18.17
2022-12-04T16:39:10.316Z,18.40
2022-12-04T16:41:38.135Z,23.67
2022-12-04T16:44:14.853Z,24.23
2022-12-04T16:46:43.622Z,22.23
2022-12-04T16:49:13.325Z,22.50
2022-12-04T16:51:44.955Z,19.83
2022-12-04T16:54:13.998Z,21.03
2022-12-04T16:56:41.938Z,24.23
2022-12-04T16:59:12.343Z,23.33
2022-12-04T17:01:45.030Z,21.60
2022-12-04T17:04:13.220Z,21.37
2022-12-04T17:06:41.538Z,19.93
2022-12-04T17:09:09.630Z,20.43
2022-12-04T17:11:37.944Z,22.90
2022-12-04T17:14:07.783Z,22.57
2022-12-04T17:16:38.474Z,21.80
2022-12-04T17:19:06.503Z,21.60
2022-12-04T17:21:35.081Z,21.67
2022-12-04T17:24:03.325Z,21.67
2022-12-04T17:26:31.285Z,20.17
2022-12-04T17:28:59.269Z,23.03
2022-12-04T17:31:27.989Z,21.83
2022-12-04T17:33:57.771Z,22.13
2022-12-04T17:36:27.488Z,22.93
2022-12-04T17:38:56.640Z,19.60
2022-12-04T17:41:25.194Z,19.17
2022-12-04T17:43:53.180Z,20.33
2022-12-04T17:46:24.335Z,20.17
2022-12-04T17:48:52.837Z,20.73
2022-12-04T17:51:23.715Z,19.87
2022-12-04T17:53:52.360Z,20.60
2022-12-04T17:56:22.461Z,18.40
2022-12-04T17:58:50.670Z,19.33
2022-12-04T18:01:20.406Z,20.60
2022-12-04T18:03:51.427Z,20.23
2022-12-04T18:06:23.244Z,20.60
2022-12-04T18:08:51.753Z,20.00
2022-12-04T18:11:21.263Z,20.40
2022-12-04T18:13:49.356Z,20.90
2022-12-04T18:16:17.243Z,18.00
2022-12-04T18:18:46.906Z,21.63
2022-12-04T18:21:15.712Z,23.70
2022-12-04T18:23:45.756Z,23.53
2022-12-04T18:26:15.276Z,21.47
2022-12-04T18:28:43.951Z,25.73
2022-12-04T18:31:12.590Z,22.57
2022-12-04T18:33:42.179Z,21.87
2022-12-04T18:36:14.135Z,22.60
2022-12-04T18:38:41.982Z,20.27
2022-12-04T18:41:12.806Z,21.87
2022-12-04T18:43:43.094Z,21.83
2022-12-04T18:46:13.736Z,21.03
2022-12-04T18:48:43.934Z,21.30
2022-12-04T18:51:17.306Z,20.57
2022-12-04T18:53:45.348Z,22.77
2022-12-04T18:56:14.884Z,20.93
2022-12-04T18:58:42.822Z,22.60
2022-12-04T19:01:13.808Z,22.87
2022-12-04T19:03:42.610Z,22.40
2022-12-04T19:06:12.041Z,22.93
2022-12-04T19:08:43.209Z,22.60
2022-12-04T19:11:16.075Z,21.17
2022-12-04T19:13:43.938Z,22.57
2022-12-04T19:16:13.046Z,23.40
2022-12-04T19:18:41.994Z,22.80
2022-12-04T19:21:10.227Z,21.03
2022-12-04T19:23:38.485Z,22.10
2022-12-04T19:26:06.706Z,21.37
2022-12-04T19:28:36.773Z,20.57
2022-12-04T19:31:05.126Z,22.37
2022-12-04T19:33:33.043Z,21.10
2022-12-04T19:36:02.195Z,19.93
2022-12-04T19:38:31.293Z,20.33
2022-12-04T19:41:08.102Z,20.00
2022-12-04T19:43:37.493Z,19.13
2022-12-04T19:46:05.943Z,20.30
2022-12-04T19:48:33.875Z,19.17
2022-12-04T19:51:05.905Z,19.23
2022-12-04T19:53:39.319Z,20.07
2022-12-04T19:56:11.624Z,19.77
2022-12-04T19:58:41.061Z,18.07
2022-12-04T20:01:11.883Z,19.13
2022-12-04T20:03:40.229Z,19.03
2022-12-04T20:06:10.698Z,19.43
2022-12-04T20:08:39.249Z,18.17
2022-12-04T20:11:09.314Z,17.47
2022-12-04T20:13:37.440Z,18.57
2022-12-04T20:16:09.245Z,17.87
2022-12-04T20:18:37.719Z,19.33
2022-12-04T20:21:10.815Z,17.80
2022-12-04T20:23:39.181Z,18.77
2022-12-04T20:26:08.414Z,18.93
2022-12-04T20:28:36.696Z,18.53
2022-12-04T20:31:15.674Z,19.37
2022-12-04T20:33:43.609Z,19.20
2022-12-04T20:36:12.153Z,19.63
2022-12-04T20:38:40.551Z,19.47
2022-12-04T20:41:10.221Z,17.33
2022-12-04T20:43:38.512Z,18.93
2022-12-04T20:46:16.071Z,20.53
2022-12-04T20:48:48.177Z,20.00
2022-12-04T20:51:17.428Z,19.50
2022-12-04T20:53:45.974Z,21.90
2022-12-04T20:56:14.327Z,20.77
2022-12-04T20:58:42.601Z,20.73
2022-12-04T21:01:12.395Z,19.93
2022-12-04T21:03:42.111Z,22.00
2022-12-04T21:06:14.715Z,23.00
2022-12-04T21:08:55.780Z,22.77
2022-12-04T21:11:25.156Z,20.60
2022-12-04T21:14:10.748Z,21.00
2022-12-04T21:16:38.901Z,21.33
2022-12-04T21:19:10.065Z,19.17
2022-12-04T21:21:38.764Z,20.70
2022-12-04T21:24:08.861Z,20.27
2022-12-04T21:26:37.299Z,21.37
2022-12-04T21:29:06.305Z,20.17
2022-12-04T21:31:35.297Z,20.93
2022-12-04T21:34:04.558Z,20.17
2022-12-04T21:36:34.093Z,19.83
2022-12-04T21:39:02.197Z,18.20
2022-12-04T21:41:47.640Z,20.57
2022-12-04T21:44:18.057Z,16.70
2022-12-04T21:46:47.199Z,19.87
2022-12-04T21:49:16.741Z,19.60
2022-12-04T21:52:02.076Z,20.47
2022-12-04T21:54:30.406Z,20.53
2022-12-04T21:56:58.543Z,19.20
2022-12-04T21:59:27.051Z,19.00
2022-12-04T22:01:55.549Z,19.80
2022-12-04T22:04:23.684Z,20.10
2022-12-04T22:06:52.828Z,19.47
2022-12-04T22:09:20.748Z,18.60
2022-12-04T22:11:48.559Z,19.20
2022-12-04T22:14:16.481Z,18.93
2022-12-04T22:16:44.378Z,20.70
2022-12-04T22:19:13.482Z,20.03
2022-12-04T22:21:41.368Z,17.87
2022-12-04T22:24:11.650Z,20.20
2022-12-04T22:26:39.957Z,19.53
2022-12-04T22:29:41.543Z,16.23
2022-12-04T22:31:56.646Z,19.20
2022-12-04T22:34:24.422Z,18.70
2022-12-04T22:36:52.311Z,19.23
2022-12-04T22:39:21.529Z,18.53
2022-12-04T22:41:49.384Z,19.93
2022-12-04T22:44:17.352Z,17.27
2022-12-04T22:46:45.286Z,17.37
2022-12-04T22:49:13.131Z,19.40
2022-12-04T22:51:40.953Z,17.03
2022-12-04T22:54:13.251Z,18.40
2022-12-04T22:56:43.424Z,17.67
2022-12-04T22:59:11.215Z,18.20
2022-12-04T23:01:39.127Z,17.53
2022-12-04T23:04:07.000Z,17.10
2022-12-04T23:06:35.337Z,17.43
2022-12-04T23:09:05.299Z,17.43
2022-12-04T23:11:33.239Z,18.60
2022-12-04T23:14:04.962Z,16.37
2022-12-04T23:16:35.271Z,18.63
2022-12-04T23:19:04.386Z,18.57
2022-12-04T23:21:32.185Z,16.70
2022-12-04T23:24:00.355Z,16.97
2022-12-04T23:26:31.193Z,17.33
2022-12-04T23:28:59.798Z,15.27
2022-12-04T23:31:29.294Z,17.33
2022-12-04T23:33:57.267Z,17.63
2022-12-04T23:36:25.558Z,16.17
2022-12-04T23:38:53.561Z,16.07
2022-12-04T23:41:24.117Z,16.97
2022-12-04T23:43:53.535Z,17.80
2022-12-04T23:46:24.929Z,16.63
2022-12-04T23:48:54.356Z,16.67
2022-12-04T23:51:22.563Z,16.77
2022-12-04T23:53:51.611Z,17.83
2022-12-04T23:56:21.110Z,17.63
2022-12-04T23:58:50.400Z,17.17
